createdAt,value
2022-08-30T00:00:15.494Z,15.00
2022-08-30T00:02:42.171Z,15.05
2022-08-30T00:05:09.569Z,14.75
2022-08-30T00:07:36.449Z,13.73
2022-08-30T00:10:04.412Z,14.23
2022-08-30T00:12:32.693Z,14.35
2022-08-30T00:14:59.593Z,14.52
2022-08-30T00:17:26.664Z,14.73
2022-08-30T00:19:55.881Z,14.30
2022-08-30T00:22:22.493Z,15.25
2022-08-30T00:24:49.755Z,14.68
2022-08-30T00:27:16.899Z,15.30
2022-08-30T00:29:43.553Z,15.32
2022-08-30T00:32:10.274Z,15.27
2022-08-30T00:34:37.045Z,15.07
2022-08-30T00:37:03.679Z,15.88
2022-08-30T00:39:30.508Z,15.65
2022-08-30T00:41:57.283Z,14.35
2022-08-30T00:44:24.378Z,15.05
2022-08-30T00:46:51.112Z,14.50
2022-08-30T00:49:17.963Z,14.52
2022-08-30T00:51:44.761Z,13.95
2022-08-30T00:54:12.393Z,14.30
2022-08-30T00:56:39.198Z,14.82
2022-08-30T00:59:07.975Z,14.90
2022-08-30T01:01:36.203Z,14.98
2022-08-30T01:04:06.379Z,14.93
2022-08-30T01:06:34.149Z,14.93
2022-08-30T01:09:03.031Z,14.18
2022-08-30T01:11:32.633Z,14.57
2022-08-30T01:13:59.667Z,15.13
2022-08-30T01:16:27.263Z,14.82
2022-08-30T01:18:57.561Z,14.38
2022-08-30T01:21:46.284Z,14.95
2022-08-30T01:24:14.059Z,14.95
2022-08-30T01:26:41.158Z,14.93
2022-08-30T01:29:11.640Z,15.30
2022-08-30T01:31:38.388Z,15.90
2022-08-30T01:34:07.660Z,15.77
2022-08-30T01:36:37.765Z,15.05
2022-08-30T01:39:16.895Z,15.20
2022-08-30T01:41:43.903Z,15.15
2022-08-30T01:44:11.867Z,15.20
2022-08-30T01:46:45.728Z,15.15
2022-08-30T01:49:15.457Z,15.38
2022-08-30T01:51:42.650Z,16.63
2022-08-30T01:54:10.090Z,17.88
2022-08-30T01:56:36.924Z,16.80
2022-08-30T01:59:04.290Z,16.85
2022-08-30T02:01:33.461Z,16.65
2022-08-30T02:04:00.551Z,15.40
2022-08-30T02:06:27.471Z,15.85
2022-08-30T02:08:54.294Z,15.52
2022-08-30T02:11:21.193Z,15.82
2022-08-30T02:13:47.857Z,15.18
2022-08-30T02:16:19.207Z,15.00
2022-08-30T02:18:46.044Z,15.90
2022-08-30T02:21:13.730Z,15.05
2022-08-30T02:23:40.915Z,14.57
2022-08-30T02:26:08.399Z,14.60
2022-08-30T02:28:35.541Z,14.30
2022-08-30T02:31:10.458Z,13.75
2022-08-30T02:33:38.650Z,15.40
2022-08-30T02:36:08.422Z,14.27
2022-08-30T02:38:35.490Z,14.25
2022-08-30T02:41:02.367Z,12.90
2022-08-30T02:43:29.017Z,15.15
2022-08-30T02:45:55.810Z,14.70
2022-08-30T02:48:22.486Z,16.33
2022-08-30T02:50:52.212Z,16.10
2022-08-30T02:53:21.099Z,16.52
2022-08-30T02:55:48.459Z,16.30
2022-08-30T02:58:15.729Z,16.67
2022-08-30T03:00:42.499Z,17.80
2022-08-30T03:03:09.301Z,17.15
2022-08-30T03:05:37.958Z,15.82
2022-08-30T03:08:07.905Z,18.10
2022-08-30T03:10:34.701Z,19.13
2022-08-30T03:13:01.396Z,20.33
2022-08-30T03:15:28.189Z,21.40
2022-08-30T03:17:55.959Z,21.05
2022-08-30T03:20:23.875Z,21.25
2022-08-30T03:22:50.488Z,19.95
2022-08-30T03:25:18.190Z,20.83
2022-08-30T03:27:44.763Z,21.10
2022-08-30T03:30:12.268Z,22.27
2022-08-30T03:32:39.622Z,21.80
2022-08-30T03:35:08.016Z,21.35
2022-08-30T03:37:35.886Z,22.15
2022-08-30T03:40:07.611Z,22.50
2022-08-30T03:45:02.393Z,22.23
2022-08-30T03:47:29.625Z,21.42
2022-08-30T03:49:56.790Z,21.17
2022-08-30T03:52:23.645Z,22.08
2022-08-30T03:54:50.293Z,22.48
2022-08-30T03:57:19.709Z,22.50
2022-08-30T03:59:46.427Z,24.50
2022-08-30T04:02:13.150Z,24.85
2022-08-30T04:04:39.801Z,20.60
2022-08-30T04:07:06.536Z,21.27
2022-08-30T04:09:33.447Z,20.55
2022-08-30T04:12:00.304Z,21.67
2022-08-30T04:14:26.982Z,21.75
2022-08-30T04:16:53.791Z,21.02
2022-08-30T04:19:20.479Z,22.92
2022-08-30T04:21:47.206Z,22.65
2022-08-30T04:24:13.914Z,22.10
2022-08-30T04:26:40.620Z,23.35
2022-08-30T04:29:07.264Z,21.83
2022-08-30T04:31:33.961Z,19.63
2022-08-30T04:34:00.582Z,20.38
2022-08-30T04:36:27.320Z,18.75
2022-08-30T04:38:54.183Z,19.55
2022-08-30T04:41:24.553Z,20.60
2022-08-30T04:43:51.586Z,19.15
2022-08-30T04:46:19.680Z,18.23
2022-08-30T04:48:46.887Z,19.65
2022-08-30T04:51:16.347Z,18.77
2022-08-30T04:53:44.108Z,19.33
2022-08-30T04:56:16.608Z,18.20
2022-08-30T04:58:45.208Z,18.10
2022-08-30T05:01:18.989Z,18.45
2022-08-30T05:03:47.917Z,18.73
2022-08-30T05:06:15.261Z,19.58
2022-08-30T05:08:45.982Z,18.30
2022-08-30T05:11:13.472Z,18.83
2022-08-30T05:13:40.210Z,17.92
2022-08-30T05:16:08.722Z,20.42
2022-08-30T05:18:36.624Z,19.70
2022-08-30T05:21:12.757Z,19.85
2022-08-30T05:23:40.630Z,21.13
2022-08-30T05:26:10.235Z,20.60
2022-08-30T05:28:37.165Z,19.73
2022-08-30T05:31:14.022Z,21.42
2022-08-30T05:33:41.947Z,22.70
2022-08-30T05:36:09.882Z,23.60
2022-08-30T05:38:36.607Z,25.67
2022-08-30T05:41:08.257Z,25.20
2022-08-30T05:43:38.187Z,24.77
2022-08-30T05:46:11.548Z,24.73
2022-08-30T05:48:39.340Z,26.10
2022-08-30T05:51:12.838Z,22.35
2022-08-30T05:53:40.685Z,22.23
2022-08-30T05:56:10.814Z,23.02
2022-08-30T05:58:38.056Z,18.70
2022-08-30T06:01:05.591Z,18.67
2022-08-30T06:03:32.979Z,17.77
2022-08-30T06:06:00.691Z,17.40
2022-08-30T06:08:27.570Z,17.70
2022-08-30T06:10:54.281Z,16.40
2022-08-30T06:13:21.071Z,16.52
2022-08-30T06:15:48.154Z,18.17
2022-08-30T06:18:14.766Z,17.52
2022-08-30T06:20:50.224Z,16.90
2022-08-30T06:23:18.113Z,17.65
2022-08-30T06:25:45.106Z,17.58
2022-08-30T06:28:12.574Z,17.80
2022-08-30T06:30:41.151Z,17.35
2022-08-30T06:33:07.971Z,17.42
2022-08-30T06:35:38.178Z,16.10
2022-08-30T06:38:09.119Z,16.85
2022-08-30T06:40:36.533Z,15.00
2022-08-30T06:43:04.438Z,15.95
2022-08-30T06:45:31.205Z,15.32
2022-08-30T06:50:31.935Z,14.52
2022-08-30T06:53:04.478Z,12.98
2022-08-30T06:55:33.504Z,15.38
2022-08-30T06:58:01.224Z,14.48
2022-08-30T07:00:29.035Z,16.30
2022-08-30T07:02:55.891Z,15.15
2022-08-30T07:05:23.774Z,14.05
2022-08-30T07:07:54.834Z,14.18
2022-08-30T07:10:21.813Z,13.27
2022-08-30T07:12:48.841Z,14.05
2022-08-30T07:15:16.301Z,15.00
2022-08-30T07:18:01.589Z,15.70
2022-08-30T07:20:28.304Z,14.73
2022-08-30T07:23:06.932Z,14.00
2022-08-30T07:25:33.642Z,15.02
2022-08-30T07:28:00.269Z,13.98
2022-08-30T07:30:27.089Z,13.45
2022-08-30T07:32:53.751Z,13.32
2022-08-30T07:35:20.394Z,13.13
2022-08-30T07:37:47.244Z,11.38
2022-08-30T07:40:14.212Z,11.50
2022-08-30T07:42:41.084Z,11.00
2022-08-30T07:45:09.364Z,10.63
2022-08-30T07:47:36.172Z,12.57
2022-08-30T07:50:05.157Z,13.23
2022-08-30T07:52:32.711Z,12.05
2022-08-30T07:55:00.214Z,12.10
2022-08-30T07:57:27.507Z,11.93
2022-08-30T07:59:54.309Z,11.77
2022-08-30T08:02:21.032Z,13.02
2022-08-30T08:04:48.648Z,13.55
2022-08-30T08:07:15.773Z,13.25
2022-08-30T08:09:42.752Z,12.98
2022-08-30T08:12:09.845Z,13.13
2022-08-30T08:14:36.879Z,12.77
2022-08-30T08:17:05.116Z,10.13
2022-08-30T08:19:31.776Z,10.65
2022-08-30T08:22:20.828Z,12.32
2022-08-30T08:24:47.087Z,13.10
2022-08-30T08:27:13.687Z,13.25
2022-08-30T08:29:40.459Z,15.57
2022-08-30T08:32:07.178Z,15.23
2022-08-30T08:34:35.589Z,14.30
2022-08-30T08:37:02.737Z,14.55
2022-08-30T08:39:29.462Z,14.68
2022-08-30T08:42:05.111Z,13.93
2022-08-30T08:44:38.207Z,15.48
2022-08-30T08:47:20.833Z,13.02
2022-08-30T08:49:51.555Z,12.05
2022-08-30T08:53:45.414Z,14.00
2022-08-30T08:56:16.941Z,13.70
2022-08-30T08:58:48.797Z,14.90
2022-08-30T09:03:44.334Z,11.85
2022-08-30T09:06:45.482Z,12.02
2022-08-30T09:09:12.882Z,11.77
2022-08-30T09:11:41.553Z,11.77
2022-08-30T09:14:16.082Z,11.35
2022-08-30T09:16:54.281Z,12.32
2022-08-30T09:19:46.584Z,11.73
2022-08-30T09:22:20.374Z,10.52
2022-08-30T09:24:53.600Z,11.15
2022-08-30T09:27:27.141Z,10.82
2022-08-30T09:30:07.250Z,10.75
2022-08-30T09:32:52.686Z,10.68
2022-08-30T09:35:23.295Z,11.68
2022-08-30T09:38:04.345Z,12.13
2022-08-30T09:40:40.226Z,13.27
2022-08-30T09:43:19.354Z,11.35
2022-08-30T09:46:06.681Z,11.90
2022-08-30T09:48:40.810Z,12.68
2022-08-30T09:51:10.521Z,11.70
2022-08-30T09:54:18.528Z,12.00
2022-08-30T09:57:01.249Z,11.45
2022-08-30T09:59:37.261Z,11.98
2022-08-30T10:03:01.116Z,11.48
2022-08-30T10:05:49.193Z,11.30
2022-08-30T10:08:39.494Z,11.10
2022-08-30T10:11:29.631Z,11.65
2022-08-30T10:14:24.295Z,11.63
2022-08-30T10:17:18.211Z,11.50
2022-08-30T10:20:09.753Z,11.85
2022-08-30T10:22:48.397Z,11.50
2022-08-30T10:25:35.824Z,11.27
2022-08-30T10:28:09.112Z,11.23
2022-08-30T10:30:41.175Z,12.10
2022-08-30T10:33:17.539Z,12.30
2022-08-30T10:35:57.640Z,12.98
2022-08-30T10:38:37.171Z,12.30
2022-08-30T10:41:34.276Z,12.55
2022-08-30T10:44:11.553Z,11.07
2022-08-30T10:47:05.173Z,12.43
2022-08-30T10:49:40.467Z,11.90
2022-08-30T10:52:34.154Z,11.55
2022-08-30T10:55:08.526Z,12.77
2022-08-30T10:57:36.658Z,12.68
2022-08-30T11:00:12.125Z,11.30
2022-08-30T11:03:31.866Z,12.68
2022-08-30T11:06:10.467Z,12.13
2022-08-30T11:09:11.248Z,11.30
2022-08-30T11:12:15.863Z,12.13
2022-08-30T11:14:46.177Z,12.57
2022-08-30T11:17:27.330Z,11.82
2022-08-30T11:19:56.998Z,12.52
2022-08-30T11:22:36.823Z,10.43
2022-08-30T11:25:16.554Z,12.15
2022-08-30T11:27:58.890Z,11.50
2022-08-30T11:30:26.690Z,10.95
2022-08-30T11:33:05.405Z,10.60
2022-08-30T11:35:47.369Z,11.10
2022-08-30T11:38:40.644Z,10.75
2022-08-30T11:41:07.359Z,10.60
2022-08-30T11:43:40.320Z,10.48
2022-08-30T11:46:25.849Z,10.43
2022-08-30T11:49:11.809Z,10.73
2022-08-30T11:52:26.225Z,10.93
2022-08-30T11:55:00.011Z,10.98
2022-08-30T11:57:50.244Z,10.32
2022-08-30T12:00:39.773Z,9.95
2022-08-30T12:03:16.425Z,10.80
2022-08-30T12:05:44.357Z,10.00
2022-08-30T12:08:20.338Z,9.95
2022-08-30T12:10:51.323Z,9.77
2022-08-30T12:13:39.197Z,10.02
2022-08-30T12:16:13.921Z,10.40
2022-08-30T12:18:53.724Z,9.10
2022-08-30T12:21:21.998Z,10.13
2022-08-30T12:23:51.798Z,10.85
2022-08-30T12:26:31.299Z,10.02
2022-08-30T12:29:06.024Z,10.35
2022-08-30T12:31:33.667Z,10.85
2022-08-30T12:34:03.332Z,10.70
2022-08-30T12:36:49.690Z,9.43
2022-08-30T12:39:24.241Z,9.05
2022-08-30T12:41:51.420Z,10.65
2022-08-30T12:44:28.309Z,10.32
2022-08-30T12:47:00.336Z,10.90
2022-08-30T12:49:30.124Z,10.40
2022-08-30T12:52:18.593Z,10.85
2022-08-30T12:54:47.150Z,11.20
2022-08-30T12:57:32.271Z,10.60
2022-08-30T13:00:01.922Z,10.65
2022-08-30T13:02:46.108Z,10.02
2022-08-30T13:05:44.540Z,11.25
2022-08-30T13:08:15.592Z,11.63
2022-08-30T13:11:03.291Z,11.80
2022-08-30T13:13:42.201Z,10.18
2022-08-30T13:16:26.647Z,11.18
2022-08-30T13:19:44.709Z,9.55
2022-08-30T13:22:27.021Z,8.77
2022-08-30T13:24:54.311Z,8.95
2022-08-30T13:27:21.189Z,8.15
2022-08-30T13:29:48.609Z,8.77
2022-08-30T13:32:16.174Z,9.48
2022-08-30T13:34:43.644Z,9.30
2022-08-30T13:42:32.284Z,8.80
2022-08-30T13:44:59.248Z,9.25
2022-08-30T13:47:34.961Z,9.80
2022-08-30T13:50:02.251Z,8.57
2022-08-30T13:52:31.882Z,9.25
2022-08-30T13:55:01.697Z,9.15
2022-08-30T14:00:19.900Z,9.55
2022-08-30T14:02:54.876Z,10.25
2022-08-30T14:05:48.395Z,10.07
2022-08-30T14:11:09.561Z,9.73
2022-08-30T14:13:36.324Z,9.38
2022-08-30T14:18:54.415Z,10.15
2022-08-30T14:21:21.401Z,10.63
2022-08-30T14:23:51.254Z,10.23
2022-08-30T14:26:23.655Z,10.57
2022-08-30T14:28:52.161Z,10.93
2022-08-30T14:31:20.186Z,10.80
2022-08-30T14:33:47.628Z,12.40
2022-08-30T14:36:14.406Z,10.98
2022-08-30T14:38:42.938Z,10.38
2022-08-30T14:41:10.885Z,10.23
2022-08-30T14:43:40.679Z,12.15
2022-08-30T14:46:09.219Z,13.63
2022-08-30T14:48:38.368Z,9.63
2022-08-30T14:51:12.994Z,10.02
2022-08-30T14:53:39.727Z,10.38
2022-08-30T14:56:12.103Z,11.15
2022-08-30T14:58:38.818Z,10.77
2022-08-30T15:01:09.536Z,10.48
2022-08-30T15:03:38.300Z,12.17
2022-08-30T15:06:06.143Z,11.93
2022-08-30T15:08:33.699Z,11.45
2022-08-30T15:11:01.314Z,11.88
2022-08-30T15:13:28.704Z,11.43
2022-08-30T15:15:56.700Z,11.82
2022-08-30T15:18:24.586Z,11.40
2022-08-30T15:20:51.403Z,11.25
2022-08-30T15:23:18.084Z,12.30
2022-08-30T15:28:17.002Z,10.55
2022-08-30T15:30:46.484Z,11.48
2022-08-30T15:33:13.225Z,9.95
2022-08-30T15:35:41.372Z,11.63
2022-08-30T15:38:08.275Z,12.45
2022-08-30T15:40:39.436Z,10.75
2022-08-30T15:43:06.197Z,12.18
2022-08-30T15:45:33.170Z,12.07
2022-08-30T15:48:00.531Z,13.15
2022-08-30T15:50:28.094Z,10.50
2022-08-30T15:52:54.867Z,14.25
2022-08-30T15:55:21.794Z,15.50
2022-08-30T15:57:48.595Z,15.05
2022-08-30T16:00:15.728Z,15.20
2022-08-30T16:02:42.655Z,11.13
2022-08-30T16:05:09.923Z,13.38
2022-08-30T16:07:40.691Z,11.77
2022-08-30T16:10:08.565Z,11.68
2022-08-30T16:12:35.184Z,9.93
2022-08-30T16:15:01.839Z,10.27
2022-08-30T16:17:28.726Z,9.60
2022-08-30T16:19:58.880Z,9.75
2022-08-30T16:22:26.565Z,11.10
2022-08-30T16:24:53.256Z,10.68
2022-08-30T16:27:21.157Z,11.68
2022-08-30T16:29:48.317Z,12.77
2022-08-30T16:32:17.337Z,10.35
2022-08-30T16:34:43.963Z,11.30
2022-08-30T16:37:10.624Z,12.02
2022-08-30T16:39:37.458Z,15.80
2022-08-30T16:42:06.826Z,12.98
2022-08-30T16:44:33.848Z,12.52
2022-08-30T16:47:02.052Z,14.60
2022-08-30T16:49:29.535Z,11.80
2022-08-30T16:51:56.203Z,11.15
2022-08-30T16:54:23.227Z,12.70
2022-08-30T16:56:49.989Z,12.40
2022-08-30T16:59:16.859Z,12.30
2022-08-30T17:01:44.828Z,12.50
2022-08-30T17:04:15.732Z,15.27
2022-08-30T17:06:45.674Z,11.80
2022-08-30T17:09:12.297Z,14.52
2022-08-30T17:14:27.878Z,15.07
2022-08-30T17:16:57.958Z,18.40
2022-08-30T17:19:26.299Z,20.13
2022-08-30T17:21:53.904Z,18.05
2022-08-30T17:24:20.589Z,17.98
2022-08-30T17:26:47.532Z,16.65
2022-08-30T17:29:14.201Z,20.00
2022-08-30T17:31:42.973Z,16.88
2022-08-30T17:34:09.674Z,18.20
2022-08-30T17:36:39.604Z,18.15
2022-08-30T17:39:11.351Z,18.10
2022-08-30T17:41:40.074Z,19.38
2022-08-30T17:44:12.770Z,20.05
2022-08-30T17:46:39.946Z,29.13
2022-08-30T17:49:06.883Z,18.60
2022-08-30T17:51:40.892Z,19.38
2022-08-30T17:54:09.554Z,18.70
2022-08-30T17:56:36.158Z,17.67
2022-08-30T17:59:05.476Z,16.08
2022-08-30T18:01:32.523Z,16.23
2022-08-30T18:04:02.060Z,16.58
2022-08-30T18:06:33.291Z,16.70
2022-08-30T18:09:01.520Z,19.33
2022-08-30T18:11:28.317Z,17.65
2022-08-30T18:13:55.244Z,16.70
2022-08-30T18:16:26.575Z,20.17
2022-08-30T18:18:57.029Z,19.45
2022-08-30T18:21:24.424Z,18.63
2022-08-30T18:23:52.577Z,20.15
2022-08-30T18:26:19.605Z,20.33
2022-08-30T18:28:51.213Z,18.48
2022-08-30T18:31:17.894Z,15.55
2022-08-30T18:33:44.723Z,17.75
2022-08-30T18:36:11.547Z,17.65
2022-08-30T18:38:39.895Z,17.13
2022-08-30T18:41:13.812Z,17.25
2022-08-30T18:43:41.681Z,18.63
2022-08-30T18:46:11.995Z,18.25
2022-08-30T18:48:39.134Z,18.50
2022-08-30T18:51:14.412Z,19.05
2022-08-30T18:53:41.510Z,20.10
2022-08-30T18:56:08.813Z,19.77
2022-08-30T18:58:40.459Z,20.42
2022-08-30T19:01:12.778Z,19.00
2022-08-30T19:03:40.092Z,18.92
2022-08-30T19:06:11.514Z,22.52
2022-08-30T19:08:40.212Z,18.95
2022-08-30T19:11:07.845Z,18.65
2022-08-30T19:13:36.175Z,18.10
2022-08-30T19:16:04.874Z,16.92
2022-08-30T19:18:32.447Z,18.45
2022-08-30T19:20:59.185Z,22.35
2022-08-30T19:23:33.045Z,21.45
2022-08-30T19:26:00.802Z,22.00
2022-08-30T19:28:28.270Z,20.40
2022-08-30T19:30:54.916Z,20.85
2022-08-30T19:33:21.743Z,18.55
2022-08-30T19:35:51.175Z,19.67
2022-08-30T19:38:18.428Z,18.08
2022-08-30T19:40:45.095Z,20.38
2022-08-30T19:43:12.453Z,18.30
2022-08-30T19:45:39.595Z,19.42
2022-08-30T19:48:06.209Z,22.25
2022-08-30T19:50:33.088Z,21.42
2022-08-30T19:52:59.737Z,21.95
2022-08-30T19:55:28.686Z,22.42
2022-08-30T19:57:57.234Z,24.20
2022-08-30T20:00:24.050Z,20.83
2022-08-30T20:02:51.396Z,37.75
2022-08-30T20:05:19.029Z,29.13
2022-08-30T20:07:45.706Z,25.05
2022-08-30T20:10:15.197Z,26.83
2022-08-30T20:12:46.905Z,22.77
2022-08-30T20:15:17.704Z,20.00
2022-08-30T20:18:03.414Z,19.77
2022-08-30T20:20:33.710Z,18.73
2022-08-30T20:23:03.824Z,19.20
2022-08-30T20:24:23.941Z,16.63
2022-08-30T20:25:30.897Z,20.00
2022-08-30T20:27:59.397Z,18.33
2022-08-30T20:30:26.197Z,20.38
2022-08-30T20:32:54.261Z,18.10
2022-08-30T20:35:21.090Z,19.10
2022-08-30T20:37:47.683Z,18.30
2022-08-30T20:40:15.964Z,19.90
2022-08-30T20:42:45.687Z,23.08
2022-08-30T20:45:15.370Z,26.40
2022-08-30T20:47:43.013Z,25.02
2022-08-30T20:50:13.571Z,25.73
2022-08-30T20:52:41.517Z,27.63
2022-08-30T20:55:09.396Z,28.50
2022-08-30T20:57:36.112Z,35.78
2022-08-30T21:00:03.755Z,38.28
2022-08-30T21:02:33.647Z,34.13
2022-08-30T21:05:00.321Z,40.95
2022-08-30T21:07:27.212Z,35.13
2022-08-30T21:09:54.055Z,33.78
2022-08-30T21:12:20.868Z,36.63
2022-08-30T21:14:47.524Z,36.38
2022-08-30T21:17:14.192Z,33.00
2022-08-30T21:19:43.813Z,28.27
2022-08-30T21:22:11.314Z,25.63
2022-08-30T21:24:37.920Z,23.20
2022-08-30T21:27:04.856Z,24.85
2022-08-30T21:29:33.109Z,20.58
2022-08-30T21:31:59.772Z,23.15
2022-08-30T21:34:26.489Z,23.23
2022-08-30T21:36:53.343Z,31.63
2022-08-30T21:39:26.289Z,45.53
2022-08-30T21:41:57.014Z,48.20
2022-08-30T21:44:26.229Z,48.25
2022-08-30T21:46:55.232Z,42.15
2022-08-30T21:49:23.612Z,36.75
2022-08-30T21:51:51.621Z,34.25
2022-08-30T21:54:18.970Z,34.00
2022-08-30T21:56:48.671Z,31.33
2022-08-30T21:59:15.454Z,28.85
2022-08-30T22:01:43.369Z,26.05
2022-08-30T22:04:11.091Z,23.33
2022-08-30T22:06:40.694Z,22.85
2022-08-30T22:09:10.145Z,22.90
2022-08-30T22:11:37.407Z,20.27
2022-08-30T22:14:05.457Z,20.38
2022-08-30T22:16:32.555Z,17.02
2022-08-30T22:18:59.383Z,16.83
2022-08-30T22:21:28.087Z,16.73
2022-08-30T22:23:55.600Z,18.08
2022-08-30T22:26:23.975Z,17.92
2022-08-30T22:28:52.875Z,16.75
2022-08-30T22:31:21.079Z,17.83
2022-08-30T22:33:48.703Z,16.10
2022-08-30T22:36:19.439Z,18.15
2022-08-30T22:38:46.118Z,17.15
2022-08-30T22:41:18.234Z,18.05
2022-08-30T22:43:45.389Z,19.33
2022-08-30T22:46:12.454Z,17.58
2022-08-30T22:48:42.133Z,15.95
2022-08-30T22:51:09.968Z,16.48
2022-08-30T22:53:36.916Z,17.00
2022-08-30T22:56:22.364Z,15.32
2022-08-30T22:58:49.548Z,15.05
2022-08-30T23:01:42.954Z,13.93
2022-08-30T23:04:10.831Z,15.60
2022-08-30T23:06:37.518Z,13.10
2022-08-30T23:09:05.756Z,14.30
2022-08-30T23:11:33.603Z,13.73
2022-08-30T23:14:02.153Z,15.35
2022-08-30T23:16:29.001Z,13.15
2022-08-30T23:18:55.904Z,13.30
2022-08-30T23:21:25.082Z,14.60
2022-08-30T23:24:13.302Z,12.63
2022-08-30T23:26:59.311Z,12.75
2022-08-30T23:29:44.801Z,13.02
2022-08-30T23:32:30.187Z,13.68
2022-08-30T23:35:15.598Z,12.73
2022-08-30T23:38:00.821Z,12.27
2022-08-30T23:40:46.025Z,12.55
2022-08-30T23:43:31.793Z,12.55
2022-08-30T23:46:19.221Z,12.52
2022-08-30T23:49:06.186Z,13.93
2022-08-30T23:51:51.476Z,12.75
2022-08-30T23:54:36.914Z,12.65
2022-08-30T23:57:23.697Z,12.48
